KBAM/BAM METAR and TAF weather

Enter ICAO airport designator
Station Type Date Time Source
KBAM METAR 2020/09/22 20:15 UTC NOAA

KBAM 222015Z AUTO 23010G20KT 10SM CLR 30/M06 A3010 RMK AO1


Station Type Date Time Source
KBAM Decoded METAR 2020/09/22 20:15 UTC NOAA

Station name not available
Sep 22, 2020 - 04:15 PM EDT / 2020.09.22 2015 UTC
Wind: from the SW (230 degrees) at 12 MPH (10 KT) gusting to 23 MPH (20 KT):0
Visibility: 10 mile(s):0
Sky conditions: clear
Temperature: 86 F (30 C)
Dew Point: 21 F (-6 C)
Relative Humidity: 9%
Pressure (altimeter): 30.1 in. Hg (1019 hPa)
ob: KBAM 222015Z AUTO 23010G20KT 10SM CLR 30/M06 A3010 RMK AO1
cycle: 20

Station Type Date Time Source
KBAM TAF 2020/09/22 18:22 UTC NOAA

TAF KBAM 221720Z 2218/2318 25010G20KT P6SM SCT200
FM230300 24008KT P6SM SCT200

Example: see airport list